Airport View

Enter ICAO identifier to see the current METAR for that AWOS.

KFNL for example

KBLV 241458Z AUTO 03007KT 10SM CLR 21/15 A3013 RMK AO2 SLP204 T02090154 50002

24 Jul 2014 15:19

Other Area AWOS: KCPS - KALN - KSAR - KSTL

TAF KBLV 2408/2514 02006KT 9999 SKC QNH3008INS BECMG 2414/2415 03012KT 9999 FEW050 QNH3016INS BECMG 2423/2424 09006KT 9999 FEW030 QNH3019INS BECMG 2509/2510 15006KT 9999 FEW020 QNH3014INS TX27/2421Z TN14/2411Z